DEEQI EDXH-EDXH
Flight info
| Callsign | DEEQI |
|---|---|
| Flight time | 0h 1m |
| Altitude | |
| Route | |
| Aircraft | PA38 |
Departure
| Time | 2026-04-20 19:27 |
|---|---|
| Airport | Helgoland-Düne Airport (EDXH) |
Arrival
| Time | 2026-04-20 19:28 |
|---|---|
| Airport | Helgoland-Düne Airport (EDXH) |
| Time | Latitude | Longitude | Altitude | Speed | Heading |
|---|---|---|---|---|---|
| 2026-04-20 19:18 | 54.18755 | 7.91594 | 4 ft | 0 kts | 136° |
| 2026-04-20 19:21 | 54.18743 | 7.91590 | 4 ft | 0 kts | 228° |
| 2026-04-20 19:21 | 54.18722 | 7.91571 | 5 ft | 6 kts | 171° |
| 2026-04-20 19:22 | 54.18700 | 7.91582 | 5 ft | 0 kts | 168° |
| 2026-04-20 19:22 | 54.18673 | 7.91567 | 3 ft | 11 kts | 226° |
| 2026-04-20 19:22 | 54.18631 | 7.91476 | 3 ft | 15 kts | 234° |
| 2026-04-20 19:23 | 54.18569 | 7.91393 | 4 ft | 7 kts | 133° |
| 2026-04-20 19:23 | 54.18542 | 7.91433 | 5 ft | 3 kts | 151° |
| 2026-04-20 19:23 | 54.18541 | 7.91434 | 5 ft | 0 kts | 152° |
| 2026-04-20 19:24 | 54.18537 | 7.91439 | 5 ft | 0 kts | 144° |
| 2026-04-20 19:25 | 54.18531 | 7.91447 | 5 ft | 3 kts | 144° |
| 2026-04-20 19:25 | 54.18526 | 7.91453 | 6 ft | 0 kts | 139° |
| 2026-04-20 19:25 | 54.18521 | 7.91462 | 6 ft | 4 kts | 130° |
| 2026-04-20 19:25 | 54.18585 | 7.91533 | 4 ft | 24 kts | 27° |
| 2026-04-20 19:26 | 54.18839 | 7.91745 | 103 ft | 44 kts | 26° |
| 2026-04-20 19:26 | 54.19113 | 7.91887 | 290 ft | 42 kts | 18° |
| 2026-04-20 19:26 | 54.19408 | 7.91778 | 409 ft | 66 kts | 308° |
| 2026-04-20 19:26 | 54.19475 | 7.90933 | 559 ft | 75 kts | 283° |
| 2026-04-20 19:27 | 54.19162 | 7.90202 | 687 ft | 84 kts | 205° |
| 2026-04-20 19:27 | 54.18595 | 7.89935 | 691 ft | 87 kts | 189° |
| 2026-04-20 19:27 | 54.18016 | 7.89777 | 704 ft | 82 kts | 167° |
| 2026-04-20 19:27 | 54.17710 | 7.90403 | 579 ft | 74 kts | 74° |
| 2026-04-20 19:28 | 54.18021 | 7.91008 | 390 ft | 68 kts | 34° |
| 2026-04-20 19:28 | 54.18439 | 7.91414 | 58 ft | 72 kts | 25° |
| 2026-04-20 19:28 | 54.18830 | 7.91741 | 95 ft | 55 kts | 25° |
| 2026-04-20 19:28 | 54.19140 | 7.91921 | 371 ft | 40 kts | 14° |
| 2026-04-20 19:29 | 54.19345 | 7.91435 | 464 ft | 77 kts | 279° |
| 2026-04-20 19:29 | 54.19106 | 7.90534 | 570 ft | 95 kts | 223° |
| 2026-04-20 19:29 | 54.18509 | 7.90038 | 674 ft | 98 kts | 194° |
| 2026-04-20 19:29 | 54.17903 | 7.89841 | 659 ft | 86 kts | 168° |
| 2026-04-20 19:30 | 54.17590 | 7.90445 | 571 ft | 65 kts | 61° |
| 2026-04-20 19:30 | 54.17944 | 7.90965 | 358 ft | 71 kts | 30° |
| 2026-04-20 19:30 | 54.18389 | 7.91360 | 103 ft | 72 kts | 26° |
| 2026-04-20 19:30 | 54.18810 | 7.91715 | 62 ft | 58 kts | 25° |
| 2026-04-20 19:31 | 54.19139 | 7.91955 | 300 ft | 47 kts | 43° |
| 2026-04-20 19:31 | 54.19235 | 7.92622 | 344 ft | 72 kts | 87° |
| 2026-04-20 19:31 | 54.18914 | 7.93412 | 430 ft | 85 kts | 126° |
| 2026-04-20 19:31 | 54.18363 | 7.93253 | 538 ft | 98 kts | 236° |
| 2026-04-20 19:32 | 54.17916 | 7.92332 | 553 ft | 100 kts | 212° |
| 2026-04-20 19:32 | 54.17318 | 7.91899 | 617 ft | 89 kts | 200° |
| 2026-04-20 19:32 | 54.16779 | 7.91553 | 622 ft | 80 kts | 201° |
| 2026-04-20 19:32 | 54.16270 | 7.91222 | 660 ft | 78 kts | 197° |
| 2026-04-20 19:33 | 54.15750 | 7.90955 | 707 ft | 77 kts | 192° |
| 2026-04-20 19:33 | 54.15273 | 7.90568 | 724 ft | 75 kts | 249° |
| 2026-04-20 19:33 | 54.15370 | 7.89851 | 691 ft | 64 kts | 325° |
| 2026-04-20 19:33 | 54.15721 | 7.89468 | 754 ft | 48 kts | 12° |
| 2026-04-20 19:34 | 54.15892 | 7.90020 | 673 ft | 68 kts | 67° |
| 2026-04-20 19:34 | 54.16185 | 7.90474 | 614 ft | 70 kts | 1° |
| 2026-04-20 19:34 | 54.16684 | 7.90366 | 524 ft | 76 kts | 359° |
| 2026-04-20 19:34 | 54.17205 | 7.90391 | 416 ft | 75 kts | 18° |
| 2026-04-20 19:35 | 54.17681 | 7.90758 | 348 ft | 74 kts | 29° |
| 2026-04-20 19:35 | 54.18141 | 7.91155 | 210 ft | 75 kts | 27° |
| 2026-04-20 19:35 | 54.18604 | 7.91552 | 13 ft | 71 kts | 25° |
| 2026-04-20 19:35 | 54.18968 | 7.91860 | 137 ft | 48 kts | 21° |
| 2026-04-20 19:36 | 54.19289 | 7.91673 | 231 ft | 69 kts | 302° |
| 2026-04-20 19:36 | 54.19208 | 7.90836 | 338 ft | 77 kts | 217° |
| 2026-04-20 19:36 | 54.18702 | 7.90482 | 349 ft | 82 kts | 201° |
| 2026-04-20 19:36 | 54.18183 | 7.90163 | 456 ft | 80 kts | 192° |
| 2026-04-20 19:37 | 54.17650 | 7.89842 | 587 ft | 78 kts | 197° |
| 2026-04-20 19:37 | 54.17133 | 7.89784 | 623 ft | 73 kts | 137° |
| 2026-04-20 19:37 | 54.17110 | 7.90442 | 601 ft | 62 kts | 31° |
| 2026-04-20 19:37 | 54.17551 | 7.90648 | 549 ft | 73 kts | 19° |
| 2026-04-20 19:38 | 54.18003 | 7.91031 | 354 ft | 70 kts | 25° |
| 2026-04-20 19:38 | 54.18441 | 7.91405 | 62 ft | 72 kts | 27° |
| 2026-04-20 19:38 | 54.18839 | 7.91739 | 75 ft | 54 kts | 25° |
| 2026-04-20 19:38 | 54.19170 | 7.91853 | 309 ft | 49 kts | 11° |
| 2026-04-20 19:39 | 54.19466 | 7.91440 | 375 ft | 83 kts | 286° |
| 2026-04-20 19:39 | 54.19306 | 7.90375 | 412 ft | 103 kts | 244° |
| 2026-04-20 19:39 | 54.18717 | 7.89789 | 586 ft | 97 kts | 201° |
| 2026-04-20 19:39 | 54.18079 | 7.89461 | 688 ft | 94 kts | 191° |
| 2026-04-20 19:40 | 54.17439 | 7.89296 | 810 ft | 96 kts | 166° |
| 2026-04-20 19:40 | 54.16937 | 7.90006 | 755 ft | 95 kts | 101° |
| 2026-04-20 19:40 | 54.17259 | 7.90695 | 660 ft | 87 kts | 10° |
| 2026-04-20 19:40 | 54.17805 | 7.90904 | 441 ft | 75 kts | 22° |
| 2026-04-20 19:41 | 54.18249 | 7.91241 | 146 ft | 62 kts | 27° |
| 2026-04-20 19:41 | 54.18596 | 7.91542 | 4 ft | 41 kts | 20° |
| 2026-04-20 19:41 | 54.18712 | 7.91572 | 5 ft | 8 kts | 346° |
| 2026-04-20 19:41 | 54.18752 | 7.91587 | 4 ft | 3 kts | 327° |
| 2026-04-20 19:42 | 54.18753 | 7.91586 | 4 ft | 0 kts | 320° |
| 2026-04-20 19:58 | 54.18754 | 7.91585 | 4 ft | 0 kts | 317° |
| 2026-04-20 19:58 | 54.18758 | 7.91588 | 4 ft | 4 kts | 70° |
| 2026-04-20 19:58 | 54.18756 | 7.91598 | 4 ft | 0 kts | 133° |
| 2026-04-20 19:59 | 54.18737 | 7.91588 | 4 ft | 5 kts | 207° |
| 2026-04-20 19:59 | 54.18707 | 7.91582 | 5 ft | 3 kts | 173° |
| 2026-04-20 19:59 | 54.18654 | 7.91527 | 3 ft | 12 kts | 235° |
| 2026-04-20 19:59 | 54.18613 | 7.91429 | 4 ft | 7 kts | 238° |
| 2026-04-20 20:00 | 54.18567 | 7.91387 | 4 ft | 5 kts | 146° |
| 2026-04-20 20:00 | 54.18530 | 7.91431 | 6 ft | 10 kts | 141° |
| 2026-04-20 20:00 | 54.18565 | 7.91515 | 4 ft | 21 kts | 26° |
| 2026-04-20 20:00 | 54.18808 | 7.91703 | 96 ft | 43 kts | 22° |
| 2026-04-20 20:01 | 54.19082 | 7.91854 | 292 ft | 41 kts | 20° |
| 2026-04-20 20:01 | 54.19293 | 7.92282 | 396 ft | 59 kts | 67° |
| 2026-04-20 20:01 | 54.19306 | 7.93049 | 497 ft | 68 kts | 81° |
| 2026-04-20 20:01 | 54.19427 | 7.93767 | 610 ft | 62 kts | 57° |
| 2026-04-20 20:02 | 54.19636 | 7.94420 | 734 ft | 60 kts | 50° |
| 2026-04-20 20:02 | 54.19937 | 7.94903 | 843 ft | 61 kts | 32° |
| 2026-04-20 20:02 | 54.20318 | 7.95254 | 908 ft | 68 kts | 24° |
| 2026-04-20 20:02 | 54.20753 | 7.95652 | 922 ft | 79 kts | 33° |
| 2026-04-20 20:03 | 54.21237 | 7.96203 | 912 ft | 88 kts | 33° |
| 2026-04-20 20:03 | 54.21746 | 7.96825 | 913 ft | 91 kts | 34° |
| 2026-04-20 20:03 | 54.22270 | 7.97453 | 908 ft | 92 kts | 34° |
| 2026-04-20 20:03 | 54.22796 | 7.98052 | 907 ft | 91 kts | 33° |
| 2026-04-20 20:04 | 54.23327 | 7.98625 | 906 ft | 90 kts | 33° |
| 2026-04-20 20:04 | 54.23849 | 7.99199 | 904 ft | 89 kts | 33° |
| 2026-04-20 20:04 | 54.24381 | 7.99743 | 903 ft | 90 kts | 33° |
| 2026-04-20 20:04 | 54.24904 | 8.00287 | 904 ft | 86 kts | 33° |
| 2026-04-20 20:05 | 54.25419 | 8.00820 | 906 ft | 87 kts | 33° |
| 2026-04-20 20:05 | 54.25938 | 8.01366 | 910 ft | 88 kts | 34° |
| 2026-04-20 20:05 | 54.26463 | 8.01914 | 909 ft | 89 kts | 34° |
| 2026-04-20 20:05 | 54.26995 | 8.02466 | 908 ft | 88 kts | 33° |
| 2026-04-20 20:06 | 54.27521 | 8.03001 | 906 ft | 88 kts | 34° |
| 2026-04-20 20:06 | 54.28043 | 8.03526 | 908 ft | 86 kts | 34° |
| 2026-04-20 20:06 | 54.28555 | 8.04032 | 908 ft | 86 kts | 33° |
| 2026-04-20 20:06 | 54.29068 | 8.04579 | 911 ft | 88 kts | 34° |
| 2026-04-20 20:07 | 54.29595 | 8.05125 | 907 ft | 90 kts | 34° |
| 2026-04-20 20:07 | 54.30128 | 8.05678 | 908 ft | 90 kts | 33° |
| 2026-04-20 20:07 | 54.30657 | 8.06234 | 910 ft | 89 kts | 34° |
| 2026-04-20 20:07 | 54.31009 | 8.06579 | 911 ft | 87 kts | 33° |
| 2026-04-20 20:08 | 54.31520 | 8.07096 | 913 ft | 84 kts | 34° |
| 2026-04-20 20:08 | 54.32185 | 8.07782 | 908 ft | 85 kts | 34° |
| 2026-04-20 20:08 | 54.32694 | 8.08295 | 908 ft | 86 kts | 33° |
| 2026-04-20 20:08 | 54.33047 | 8.08653 | 906 ft | 88 kts | 33° |
| 2026-04-20 20:09 | 54.33737 | 8.09382 | 909 ft | 88 kts | 33° |
| 2026-04-20 20:09 | 54.34268 | 8.09926 | 913 ft | 88 kts | 33° |
| 2026-04-20 20:09 | 54.34619 | 8.10298 | 912 ft | 87 kts | 33° |
| 2026-04-20 20:09 | 54.35131 | 8.10855 | 910 ft | 88 kts | 33° |
| 2026-04-20 20:10 | 54.35647 | 8.11410 | 908 ft | 87 kts | 34° |
| 2026-04-20 20:10 | 54.36173 | 8.11943 | 906 ft | 88 kts | 33° |
| 2026-04-20 20:10 | 54.36694 | 8.12487 | 903 ft | 87 kts | 34° |
| 2026-04-20 20:10 | 54.37218 | 8.12999 | 892 ft | 87 kts | 33° |
| 2026-04-20 20:11 | 54.37740 | 8.13507 | 897 ft | 86 kts | 34° |
| 2026-04-20 20:11 | 54.38261 | 8.14015 | 896 ft | 87 kts | 33° |
| 2026-04-20 20:11 | 54.38783 | 8.14570 | 895 ft | 88 kts | 34° |
| 2026-04-20 20:11 | 54.39311 | 8.15112 | 895 ft | 89 kts | 34° |
| 2026-04-20 20:12 | 54.39830 | 8.15648 | 897 ft | 88 kts | 34° |
| 2026-04-20 20:12 | 54.40350 | 8.16192 | 899 ft | 87 kts | 34° |
| 2026-04-20 20:12 | 54.40872 | 8.16709 | 902 ft | 86 kts | 34° |
| 2026-04-20 20:13 | 54.41916 | 8.17764 | 899 ft | 90 kts | 35° |
| 2026-04-20 20:13 | 54.42462 | 8.18332 | 901 ft | 94 kts | 34° |
| 2026-04-20 20:13 | 54.43019 | 8.18929 | 901 ft | 95 kts | 34° |
| 2026-04-20 20:13 | 54.43579 | 8.19517 | 896 ft | 93 kts | 35° |
| 2026-04-20 20:14 | 54.44123 | 8.20066 | 897 ft | 88 kts | 33° |
| 2026-04-20 20:14 | 54.44642 | 8.20607 | 896 ft | 87 kts | 35° |
| 2026-04-20 20:14 | 54.45129 | 8.21238 | 895 ft | 89 kts | 40° |
| 2026-04-20 20:14 | 54.45617 | 8.21898 | 895 ft | 90 kts | 39° |
| 2026-04-20 20:15 | 54.46111 | 8.22575 | 887 ft | 92 kts | 40° |
| 2026-04-20 20:15 | 54.46615 | 8.23222 | 889 ft | 90 kts | 39° |
| 2026-04-20 20:15 | 54.46990 | 8.24031 | 889 ft | 91 kts | 73° |
| 2026-04-20 20:15 | 54.47012 | 8.25129 | 885 ft | 91 kts | 75° |
| 2026-04-20 20:16 | 54.47094 | 8.26221 | 885 ft | 93 kts | 77° |
| 2026-04-20 20:16 | 54.47175 | 8.27308 | 886 ft | 91 kts | 77° |
| 2026-04-20 20:16 | 54.47272 | 8.28381 | 883 ft | 91 kts | 75° |
| 2026-04-20 20:16 | 54.47374 | 8.29438 | 886 ft | 91 kts | 76° |
| 2026-04-20 20:17 | 54.47471 | 8.30516 | 889 ft | 90 kts | 75° |
| 2026-04-20 20:17 | 54.47566 | 8.31581 | 895 ft | 91 kts | 77° |
| 2026-04-20 20:17 | 54.47670 | 8.32660 | 896 ft | 93 kts | 77° |
| 2026-04-20 20:17 | 54.47791 | 8.33754 | 898 ft | 93 kts | 77° |
| 2026-04-20 20:18 | 54.47906 | 8.34851 | 897 ft | 94 kts | 77° |
| 2026-04-20 20:18 | 54.48034 | 8.35953 | 893 ft | 94 kts | 76° |
| 2026-04-20 20:18 | 54.48142 | 8.37051 | 893 ft | 93 kts | 77° |
| 2026-04-20 20:18 | 54.48232 | 8.38138 | 887 ft | 91 kts | 77° |
| 2026-04-20 20:19 | 54.48340 | 8.39210 | 885 ft | 91 kts | 74° |
| 2026-04-20 20:19 | 54.48452 | 8.40288 | 883 ft | 90 kts | 76° |
| 2026-04-20 20:19 | 54.48556 | 8.41351 | 883 ft | 91 kts | 75° |
| 2026-04-20 20:19 | 54.48662 | 8.42450 | 881 ft | 94 kts | 76° |
| 2026-04-20 20:20 | 54.48767 | 8.43553 | 883 ft | 94 kts | 75° |
| 2026-04-20 20:20 | 54.48872 | 8.44667 | 884 ft | 94 kts | 76° |
| 2026-04-20 20:20 | 54.48970 | 8.45776 | 885 ft | 94 kts | 76° |
| 2026-04-20 20:20 | 54.49090 | 8.46887 | 886 ft | 95 kts | 75° |
| 2026-04-20 20:21 | 54.49192 | 8.48008 | 888 ft | 94 kts | 77° |
| 2026-04-20 20:21 | 54.49296 | 8.49108 | 889 ft | 92 kts | 75° |
| 2026-04-20 20:21 | 54.49409 | 8.50193 | 891 ft | 92 kts | 75° |
| 2026-04-20 20:21 | 54.49527 | 8.51276 | 885 ft | 93 kts | 76° |
| 2026-04-20 20:22 | 54.49619 | 8.52377 | 887 ft | 92 kts | 75° |
| 2026-04-20 20:22 | 54.49723 | 8.53453 | 886 ft | 91 kts | 77° |
| 2026-04-20 20:22 | 54.49816 | 8.54526 | 886 ft | 90 kts | 75° |
| 2026-04-20 20:22 | 54.49914 | 8.55580 | 885 ft | 91 kts | 76° |
| 2026-04-20 20:23 | 54.50016 | 8.56667 | 883 ft | 93 kts | 76° |
| 2026-04-20 20:23 | 54.50166 | 8.57738 | 866 ft | 93 kts | 71° |
| 2026-04-20 20:23 | 54.50321 | 8.58776 | 897 ft | 90 kts | 71° |
| 2026-04-20 20:23 | 54.50489 | 8.59797 | 941 ft | 89 kts | 71° |
| 2026-04-20 20:24 | 54.50663 | 8.60869 | 885 ft | 94 kts | 72° |
| 2026-04-20 20:24 | 54.50826 | 8.61842 | 1009 ft | 88 kts | 71° |
| 2026-04-20 20:24 | 54.50991 | 8.62840 | 1084 ft | 85 kts | 71° |
| 2026-04-20 20:24 | 54.51103 | 8.63686 | 1397 ft | 63 kts | 73° |
| 2026-04-20 20:25 | 54.51197 | 8.64387 | 1616 ft | 60 kts | 70° |
| 2026-04-20 20:25 | 54.51312 | 8.65112 | 1755 ft | 66 kts | 73° |
| 2026-04-20 20:25 | 54.51431 | 8.65886 | 1915 ft | 66 kts | 72° |
| 2026-04-20 20:25 | 54.51577 | 8.66729 | 1901 ft | 82 kts | 70° |
| 2026-04-20 20:26 | 54.51727 | 8.67775 | 1833 ft | 88 kts | 74° |
| 2026-04-20 20:26 | 54.51885 | 8.68753 | 1876 ft | 90 kts | 72° |
| 2026-04-20 20:26 | 54.52055 | 8.69793 | 1765 ft | 87 kts | 71° |
| 2026-04-20 20:26 | 54.52272 | 8.70730 | 1518 ft | 86 kts | 51° |
| 2026-04-20 20:27 | 54.52891 | 8.70796 | 859 ft | 104 kts | 335° |
| 2026-04-20 20:27 | 54.53265 | 8.69819 | 554 ft | 94 kts | 295° |
| 2026-04-20 20:27 | 54.53463 | 8.68790 | 152 ft | 88 kts | 305° |
| 2026-04-20 20:27 | 54.53643 | 8.67931 | -1 ft | 58 kts | 303° |
| 2026-04-20 20:28 | 54.53727 | 8.67624 | 0 ft | 6 kts | 59° |
| 2026-04-20 20:28 | 54.53729 | 8.67696 | 1 ft | 11 kts | 90° |
| 2026-04-20 20:28 | 54.53757 | 8.67738 | 3 ft | 2 kts | 18° |